Time;durP1;ratioP1;P1;durP2;ratioP2;P2;SDS_P1;SDS_P2;PMS_P1;PMS_P2;Temp;Humidity;BMP_temperature;BMP_pressure;BME280_temperature;BME280_humidity;BME280_pressure;Samples;Min_cycle;Max_cycle;Signal;HPM_P1;HPM_P2
2022/04/27 00:00:24;;;;;;;6.40;3.00;;;;;;;15.35;100.00;100424.34;4993070;28;20511;-74
2022/04/27 00:02:50;;;;;;;5.80;3.13;;;;;;;15.30;100.00;100412.09;4993165;28;20030;-73
2022/04/27 00:05:16;;;;;;;6.10;2.80;;;;;;;15.48;100.00;100411.53;4993013;28;20037;-73
2022/04/27 00:07:41;;;;;;;9.05;2.88;;;;;;;15.52;100.00;100395.97;4993207;28;20022;-74
2022/04/27 00:10:07;;;;;;;4.50;2.70;;;;;;;15.78;100.00;100428.47;4992704;28;20092;-73
2022/04/27 00:12:37;;;;;;;6.22;2.47;;;;;;;15.47;98.22;100422.78;4990735;28;20087;-74
2022/04/27 00:15:04;;;;;;;5.00;2.42;;;;;;;15.31;98.07;100437.25;4991799;28;20504;-74
2022/04/27 00:17:30;;;;;;;6.80;2.85;;;;;;;14.96;99.19;100396.78;4991649;28;20061;-75
2022/04/27 00:19:55;;;;;;;6.30;2.80;;;;;;;14.74;100.00;100403.28;4992987;28;20049;-75
2022/04/27 00:22:21;;;;;;;4.68;2.88;;;;;;;14.91;100.00;100423.56;4992759;28;20084;-73
2022/04/27 00:24:46;;;;;;;5.10;2.45;;;;;;;14.87;100.00;100433.88;4990984;28;20030;-76
2022/04/27 00:27:12;;;;;;;7.95;2.72;;;;;;;14.78;100.00;100431.13;4992934;28;20060;-74
2022/04/27 00:29:37;;;;;;;3.08;2.42;;;;;;;14.19;100.00;100392.66;4990919;28;20541;-74
2022/04/27 00:32:03;;;;;;;10.68;3.10;;;;;;;13.65;100.00;100409.66;4992343;28;20036;-74
2022/04/27 00:34:28;;;;;;;4.97;3.30;;;;;;;13.51;100.00;100424.91;4992859;28;20117;-72
2022/04/27 00:36:54;;;;;;;6.22;3.15;;;;;;;13.71;100.00;100413.25;4992376;28;20105;-74
2022/04/27 00:39:19;;;;;;;7.75;3.25;;;;;;;13.87;100.00;100385.94;4992062;28;20034;-74
2022/04/27 00:41:59;;;;;;;6.40;3.25;;;;;;;14.05;100.00;100393.25;4992429;28;20038;-74
2022/04/27 00:44:29;;;;;;;5.57;2.80;;;;;;;14.29;100.00;100414.50;4992292;28;20122;-77
2022/04/27 00:46:56;;;;;;;4.65;2.63;;;;;;;14.32;100.00;100407.66;4974988;28;20038;-77
2022/04/27 00:49:21;;;;;;;4.72;3.10;;;;;;;14.40;100.00;100400.91;4992188;28;20088;-76
2022/04/27 00:51:48;;;;;;;7.85;3.30;;;;;;;14.43;100.00;100396.59;4992169;28;20035;-76
2022/04/27 00:54:14;;;;;;;6.13;2.85;;;;;;;14.10;100.00;100406.31;4989301;28;20041;-73
2022/04/27 00:56:42;;;;;;;9.18;2.75;;;;;;;14.24;100.00;100404.00;4989643;28;20138;-77
2022/04/27 00:59:07;;;;;;;6.63;2.78;;;;;;;14.26;100.00;100402.34;4989646;28;20043;-75
2022/04/27 01:01:35;;;;;;;6.32;2.90;;;;;;;13.96;100.00;100361.91;4956855;28;20101;-75
2022/04/27 01:04:00;;;;;;;8.45;3.33;;;;;;;14.16;100.00;100397.81;4989469;28;20130;-73
2022/04/27 01:06:26;;;;;;;5.88;3.00;;;;;;;14.32;100.00;100405.06;4989343;28;20552;-74
2022/04/27 01:08:52;;;;;;;5.63;2.50;;;;;;;14.29;100.00;100397.19;4989377;28;20042;-77
2022/04/27 01:11:17;;;;;;;4.90;2.67;;;;;;;13.72;100.00;100395.97;4989608;28;20035;-74
2022/04/27 01:13:43;;;;;;;5.50;3.13;;;;;;;13.53;100.00;100381.69;4989288;28;20038;-76
2022/04/27 01:16:08;;;;;;;4.75;3.17;;;;;;;13.53;100.00;100359.25;4989221;28;20030;-79
2022/04/27 01:18:35;;;;;;;5.85;3.13;;;;;;;13.57;100.00;100381.81;4989190;28;20030;-74
2022/04/27 01:21:03;;;;;;;4.88;3.38;;;;;;;13.55;100.00;100380.88;4988748;28;20545;-74
2022/04/27 01:23:28;;;;;;;12.95;3.30;;;;;;;13.54;100.00;100349.75;4989093;28;20022;-71
2022/04/27 01:25:56;;;;;;;6.72;3.40;;;;;;;13.66;100.00;100391.53;4990959;28;20065;-72
2022/04/27 01:28:24;;;;;;;6.80;3.38;;;;;;;13.62;100.00;100389.72;4991827;28;20042;-73
2022/04/27 01:30:58;;;;;;;5.38;3.20;;;;;;;13.84;100.00;100387.59;4999310;28;20685;-76
2022/04/27 01:33:24;;;;;;;6.90;3.50;;;;;;;13.96;100.00;100371.44;4991423;28;20034;-73
2022/04/27 01:35:50;;;;;;;5.80;2.85;;;;;;;14.10;100.00;100366.53;4991239;28;20036;-74
2022/04/27 01:38:18;;;;;;;7.60;3.53;;;;;;;14.15;100.00;100378.75;4991286;28;20038;-75
2022/04/27 01:40:47;;;;;;;5.88;3.33;;;;;;;14.11;100.00;100369.16;4991436;28;20042;-74
2022/04/27 01:43:16;;;;;;;6.95;3.50;;;;;;;14.20;100.00;100371.06;4991180;28;20034;-74
2022/04/27 01:45:43;;;;;;;6.13;3.35;;;;;;;14.26;100.00;100358.19;4991427;28;20026;-75
2022/04/27 01:48:10;;;;;;;5.50;3.38;;;;;;;14.32;100.00;100366.09;4990473;28;20034;-75
2022/04/27 01:50:35;;;;;;;7.60;3.50;;;;;;;14.24;100.00;100365.97;4991466;28;20077;-75
2022/04/27 01:55:45;;;;;;;6.30;3.20;;;;;;;14.11;100.00;100365.69;4991182;28;20104;-75
2022/04/27 01:58:10;;;;;;;5.78;3.10;;;;;;;13.64;100.00;100349.09;4991229;28;20053;-75
2022/04/27 02:00:36;;;;;;;8.35;3.88;;;;;;;13.37;100.00;100380.41;4990678;28;20030;-73
2022/04/27 02:03:02;;;;;;;10.73;3.83;;;;;;;12.98;100.00;100366.50;4990942;28;20026;-73
2022/04/27 02:05:27;;;;;;;9.35;3.42;;;;;;;12.79;100.00;100372.94;4990663;28;20022;-75
2022/04/27 02:07:53;;;;;;;10.48;3.47;;;;;;;13.04;100.00;100386.53;4974373;28;20046;-74
2022/04/27 02:10:18;;;;;;;11.55;4.20;;;;;;;13.27;100.00;100390.56;5008023;28;20034;-74
2022/04/27 02:12:44;;;;;;;8.50;4.28;;;;;;;13.29;100.00;100364.69;5008796;28;20022;-74
2022/04/27 02:15:09;;;;;;;7.05;4.15;;;;;;;13.57;100.00;100381.81;5009782;28;20030;-72
2022/04/27 02:17:35;;;;;;;8.27;4.75;;;;;;;13.61;100.00;100374.97;5010478;28;20034;-74
2022/04/27 02:20:01;;;;;;;7.78;4.82;;;;;;;13.61;100.00;100377.56;5010459;28;20084;-74
2022/04/27 02:22:26;;;;;;;8.23;5.75;;;;;;;13.67;100.00;100369.94;5010186;28;20026;-74
2022/04/27 02:24:52;;;;;;;11.70;6.60;;;;;;;13.74;100.00;100374.44;5010376;28;20482;-74
2022/04/27 02:27:17;;;;;;;9.30;6.30;;;;;;;13.80;100.00;100378.84;5010165;28;20073;-75
2022/04/27 02:29:43;;;;;;;8.70;6.35;;;;;;;13.90;100.00;100390.31;5010206;28;20055;-75
2022/04/27 02:32:09;;;;;;;10.02;6.00;;;;;;;13.88;100.00;100381.63;5010784;28;20454;-77
2022/04/27 02:34:34;;;;;;;7.88;6.10;;;;;;;13.73;100.00;100367.47;5010195;28;20034;-72
2022/04/27 02:37:00;;;;;;;10.55;7.90;;;;;;;13.79;100.00;100389.22;5010614;28;20018;-75
2022/04/27 02:39:25;;;;;;;13.18;9.07;;;;;;;13.82;100.00;100397.94;5010161;28;20026;-79
2022/04/27 02:41:50;;;;;;;14.68;9.93;;;;;;;13.81;100.00;100395.31;5009997;28;20033;-73
2022/04/27 02:44:16;;;;;;;10.80;9.07;;;;;;;13.82;100.00;100395.34;5010019;28;20041;-75
2022/04/27 02:46:41;;;;;;;13.13;8.65;;;;;;;13.75;100.00;100394.31;5010039;28;20034;-75
2022/04/27 02:51:54;;;;;;;12.15;8.18;;;;;;;13.55;100.00;100382.63;5010392;28;20045;-72
2022/04/27 02:54:21;;;;;;;10.20;8.07;;;;;;;13.52;100.00;100387.72;5010013;28;20036;-75
2022/04/27 02:56:47;;;;;;;8.77;7.35;;;;;;;13.50;100.00;100390.28;5009665;28;20026;-74
2022/04/27 02:59:13;;;;;;;12.00;7.88;;;;;;;13.46;100.00;100391.06;5010550;28;20484;-75
2022/04/27 03:01:39;;;;;;;8.43;7.32;;;;;;;13.09;100.00;100378.03;5013630;28;20087;-75
2022/04/27 03:04:05;;;;;;;9.07;7.20;;;;;;;12.95;100.00;100388.03;5013720;28;20033;-75
2022/04/27 03:06:30;;;;;;;9.68;7.38;;;;;;;12.89;100.00;100387.88;5013695;28;20101;-74
2022/04/27 03:08:56;;;;;;;11.30;7.78;;;;;;;12.70;100.00;100402.06;5013733;28;20104;-75
2022/04/27 03:11:21;;;;;;;9.45;6.50;;;;;;;12.41;100.00;100393.47;5013571;28;20493;-75
2022/04/27 03:13:47;;;;;;;10.77;6.47;;;;;;;12.43;100.00;100399.59;5013800;28;20111;-75
2022/04/27 03:16:12;;;;;;;10.98;6.00;;;;;;;12.55;100.00;100410.28;5013711;28;20399;-75
2022/04/27 03:18:38;;;;;;;10.10;6.18;;;;;;;12.34;100.00;100400.22;5013425;28;20030;-73
2022/04/27 03:21:03;;;;;;;9.00;5.53;;;;;;;11.92;100.00;100373.06;5013329;28;20026;-73
2022/04/27 03:23:29;;;;;;;8.45;5.05;;;;;;;11.95;100.00;100416.25;5013412;28;20030;-74
2022/04/27 03:25:54;;;;;;;8.40;5.72;;;;;;;11.76;100.00;100417.41;5013215;28;20469;-74
2022/04/27 03:28:20;;;;;;;10.93;6.50;;;;;;;11.75;100.00;100415.66;5012988;28;20045;-74
2022/04/27 03:30:45;;;;;;;9.07;5.55;;;;;;;11.82;100.00;100422.78;5008675;28;20129;-71
2022/04/27 03:33:10;;;;;;;10.30;5.65;;;;;;;11.91;100.00;100420.50;4993770;28;20041;-76
2022/04/27 03:35:36;;;;;;;6.55;4.82;;;;;;;12.07;100.00;100426.16;4993626;28;20027;-74
2022/04/27 03:38:03;;;;;;;8.38;5.53;;;;;;;12.23;100.00;100440.44;4993651;28;20033;-72
2022/04/27 03:40:29;;;;;;;10.90;5.65;;;;;;;12.32;100.00;100430.34;4991786;28;20030;-74
2022/04/27 03:42:54;;;;;;;7.38;4.72;;;;;;;12.13;100.00;100414.28;4992099;28;20049;-74
2022/04/27 03:45:20;;;;;;;10.05;5.55;;;;;;;12.42;100.00;100442.75;4993374;28;20031;-71
2022/04/27 03:47:47;;;;;;;9.45;5.38;;;;;;;12.52;100.00;100443.00;4993515;28;20048;-73
2022/04/27 03:50:13;;;;;;;7.55;5.30;;;;;;;12.39;100.00;100408.97;4992029;28;20038;-74
2022/04/27 03:52:38;;;;;;;7.72;4.85;;;;;;;12.78;100.00;100452.38;4973627;28;20478;-72
2022/04/27 03:55:04;;;;;;;10.70;5.15;;;;;;;12.86;100.00;100449.09;4973473;28;20409;-71
2022/04/27 03:57:30;;;;;;;8.35;5.50;;;;;;;12.93;100.00;100445.84;4973147;28;20026;-76
2022/04/27 03:59:55;;;;;;;7.63;4.68;;;;;;;13.07;100.00;100462.66;4973297;28;20101;-76
2022/04/27 04:02:21;;;;;;;8.48;5.18;;;;;;;13.20;100.00;100466.44;4972761;28;20114;-76
2022/04/27 04:04:47;;;;;;;7.53;5.50;;;;;;;13.19;100.00;100453.44;4973590;28;20068;-74
2022/04/27 04:07:12;;;;;;;8.98;5.10;;;;;;;13.24;100.00;100450.13;4973363;28;20023;-74
2022/04/27 04:09:39;;;;;;;6.70;4.72;;;;;;;13.17;100.00;100443.03;4973746;28;20039;-73
2022/04/27 04:12:05;;;;;;;6.97;4.47;;;;;;;13.11;100.00;100446.34;4973418;28;20023;-73
2022/04/27 04:14:31;;;;;;;6.93;5.05;;;;;;;13.23;100.00;100473.41;4973446;28;20034;-74
2022/04/27 04:16:56;;;;;;;5.88;4.25;;;;;;;12.80;100.00;100465.38;4972773;28;20019;-73
2022/04/27 04:19:21;;;;;;;6.55;4.45;;;;;;;12.53;100.00;100457.69;4973173;28;20109;-72
2022/04/27 04:21:47;;;;;;;11.70;3.95;;;;;;;12.73;100.00;100466.03;4986910;28;20118;-72
2022/04/27 04:24:12;;;;;;;6.03;3.50;;;;;;;12.55;100.00;100476.75;4973253;28;20022;-73
2022/04/27 04:29:22;;;;;;;4.10;3.13;;;;;;;12.72;100.00;100465.16;4980880;28;20064;-73
2022/04/27 04:31:47;;;;;;;4.00;3.22;;;;;;;12.77;100.00;100473.03;4992551;28;20039;-72
2022/04/27 04:34:13;;;;;;;5.30;3.50;;;;;;;12.89;100.00;100477.72;4992759;28;20038;-73
2022/04/27 04:36:38;;;;;;;6.13;3.97;;;;;;;12.96;100.00;100484.81;4992290;28;20042;-74
2022/04/27 04:39:03;;;;;;;7.90;4.05;;;;;;;12.97;100.00;100468.41;4992538;28;20036;-73
2022/04/27 04:41:29;;;;;;;6.05;4.18;;;;;;;13.31;100.00;100494.34;4992219;28;20034;-71
2022/04/27 04:43:54;;;;;;;7.32;3.90;;;;;;;13.24;100.00;100467.41;4992428;28;20112;-76
2022/04/27 04:46:20;;;;;;;9.40;3.97;;;;;;;13.51;100.00;100494.94;4992754;28;20034;-73
2022/04/27 04:48:45;;;;;;;6.03;4.00;;;;;;;13.32;100.00;100463.31;4975238;28;20041;-73
2022/04/27 04:51:11;;;;;;;10.13;5.18;;;;;;;13.48;100.00;100495.69;4992619;28;20387;-74
2022/04/27 04:53:36;;;;;;;6.90;5.15;;;;;;;13.42;100.00;100490.34;4992192;28;20549;-74
2022/04/27 04:56:01;;;;;;;7.75;4.50;;;;;;;13.48;100.00;100487.91;4992552;28;20030;-74
2022/04/27 04:58:27;;;;;;;11.75;5.75;;;;;;;13.56;100.00;100488.13;4992273;28;20072;-73
2022/04/27 05:00:52;;;;;;;8.48;5.53;;;;;;;13.61;100.00;100476.16;4992205;28;20022;-74
2022/04/27 05:03:18;;;;;;;7.20;5.07;;;;;;;13.84;100.00;100499.19;4992114;28;20026;-74
2022/04/27 05:05:44;;;;;;;6.93;4.72;;;;;;;13.90;100.00;100510.56;4992188;28;20105;-73
2022/04/27 05:08:10;;;;;;;7.65;5.70;;;;;;;14.08;100.00;100498.84;4991729;28;20874;-74
2022/04/27 05:10:36;;;;;;;8.27;5.88;;;;;;;14.15;100.00;100492.97;4991951;28;20038;-73
2022/04/27 05:13:01;;;;;;;7.50;5.35;;;;;;;14.14;100.00;100487.75;4991901;28;20026;-74
2022/04/27 05:15:27;;;;;;;8.50;5.50;;;;;;;13.87;100.00;100499.25;4991875;28;20027;-74
2022/04/27 05:17:52;;;;;;;8.73;5.07;;;;;;;13.46;100.00;100435.16;4992309;28;20022;-73
2022/04/27 05:20:18;;;;;;;9.07;5.20;;;;;;;13.95;100.00;100499.44;4991999;28;20080;-74
2022/04/27 05:22:44;;;;;;;10.55;5.47;;;;;;;14.13;100.00;100511.97;4990653;28;20409;-74
2022/04/27 05:25:11;;;;;;;10.60;5.35;;;;;;;14.12;100.00;100485.13;4991739;28;20034;-73
2022/04/27 05:27:39;;;;;;;10.65;5.25;;;;;;;14.42;100.00;100511.72;4991636;28;20030;-69
2022/04/27 05:32:50;;;;;;;7.03;4.88;;;;;;;14.67;100.00;100531.38;4991545;28;20187;-75
2022/04/27 05:35:15;;;;;;;7.75;5.28;;;;;;;14.66;100.00;100514.03;4991126;28;20030;-76
2022/04/27 05:37:41;;;;;;;7.75;5.20;;;;;;;14.84;100.00;100532.59;4992015;28;20819;-77
2022/04/27 05:40:08;;;;;;;6.30;4.60;;;;;;;14.90;100.00;100516.22;4991358;28;20030;-73
2022/04/27 05:42:35;;;;;;;6.70;4.93;;;;;;;15.08;100.00;100525.25;4990141;28;20466;-75
2022/04/27 05:45:00;;;;;;;5.85;4.68;;;;;;;15.20;100.00;100536.78;4991404;28;20033;-75
2022/04/27 05:47:26;;;;;;;6.60;4.68;;;;;;;15.16;100.00;100521.06;4991421;28;20108;-72
2022/04/27 05:49:52;;;;;;;10.00;4.88;;;;;;;15.17;100.00;100531.50;4988697;28;20108;-75
2022/04/27 05:52:20;;;;;;;10.75;5.00;;;;;;;15.27;100.00;100531.69;4991657;28;20054;-74
2022/04/27 05:54:48;;;;;;;7.70;4.75;;;;;;;15.18;100.00;100503.78;4991180;28;20034;-75
2022/04/27 05:57:14;;;;;;;15.07;4.32;;;;;;;15.33;100.00;100513.59;4991281;28;20100;-75
2022/04/27 05:59:40;;;;;;;13.02;4.80;;;;;;;15.50;99.26;100529.47;4991189;28;20662;-76
2022/04/27 06:02:05;;;;;;;13.02;4.55;;;;;;;15.42;99.71;100531.97;4989779;28;20056;-74
2022/04/27 06:04:30;;;;;;;18.08;6.15;;;;;;;15.34;100.00;100531.81;4990354;28;20088;-75
2022/04/27 06:06:56;;;;;;;11.43;5.00;;;;;;;15.31;100.00;100536.94;4991347;28;20533;-75
2022/04/27 06:09:22;;;;;;;12.13;4.97;;;;;;;15.23;100.00;100535.06;4990744;28;20183;-79
2022/04/27 06:11:47;;;;;;;7.82;4.70;;;;;;;15.17;100.00;100512.44;4991065;28;20026;-75
2022/04/27 06:14:13;;;;;;;9.90;4.55;;;;;;;15.29;100.00;100515.25;4990843;28;20030;-74
2022/04/27 06:16:38;;;;;;;9.98;3.95;;;;;;;15.60;99.67;100534.03;4991150;28;20839;-72
2022/04/27 06:19:04;;;;;;;14.02;4.72;;;;;;;15.77;99.95;100542.09;4990972;28;20050;-75
2022/04/27 06:21:33;;;;;;;8.85;4.47;;;;;;;15.82;99.53;100521.38;4991106;28;20034;-76
2022/04/27 06:24:00;;;;;;;6.78;3.90;;;;;;;15.85;98.03;100500.63;4990986;28;20524;-75
2022/04/27 06:26:26;;;;;;;6.03;3.90;;;;;;;16.09;98.28;100533.97;4991135;28;20026;-74
2022/04/27 06:28:52;;;;;;;9.73;4.40;;;;;;;16.15;98.16;100544.47;4972308;28;20046;-76
2022/04/27 06:31:19;;;;;;;6.93;3.83;;;;;;;16.27;98.21;100538.56;4990608;28;20057;-76
2022/04/27 06:33:45;;;;;;;7.93;3.83;;;;;;;16.21;98.52;100515.03;4992291;28;20121;-72
2022/04/27 06:36:11;;;;;;;7.75;4.40;;;;;;;16.40;97.08;100550.06;4994509;28;20172;-75
2022/04/27 06:38:37;;;;;;;7.78;4.50;;;;;;;16.41;99.22;100550.94;4994679;28;20553;-75
2022/04/27 06:41:03;;;;;;;9.25;4.10;;;;;;;16.22;99.21;100519.38;4994678;28;20109;-74
2022/04/27 06:43:28;;;;;;;5.38;4.20;;;;;;;16.23;99.69;100530.72;4992552;28;20038;-71
2022/04/27 06:45:54;;;;;;;9.25;4.65;;;;;;;16.42;100.00;100537.91;4994657;28;20470;-74
2022/04/27 06:48:19;;;;;;;10.27;4.32;;;;;;;16.49;99.72;100542.34;4994406;28;20027;-74
2022/04/27 06:50:45;;;;;;;6.78;4.50;;;;;;;16.52;100.00;100536.31;4993750;28;20504;-76
2022/04/27 06:53:10;;;;;;;7.32;4.32;;;;;;;16.50;100.00;100528.47;4994165;28;20032;-76
2022/04/27 06:55:37;;;;;;;8.85;4.38;;;;;;;16.33;99.69;100569.06;4993910;28;20032;-77
2022/04/27 06:58:03;;;;;;;16.25;5.47;;;;;;;16.24;100.00;100569.78;4993732;28;20022;-76
2022/04/27 07:00:28;;;;;;;14.57;5.10;;;;;;;16.28;100.00;100536.84;4993597;28;20085;-77
2022/04/27 07:02:54;;;;;;;33.80;6.80;;;;;;;16.24;100.00;100524.66;4993859;28;20470;-75
2022/04/27 07:05:20;;;;;;;18.67;5.88;;;;;;;16.39;100.00;100537.88;4994249;28;20034;-76
2022/04/27 07:07:47;;;;;;;21.80;5.00;;;;;;;16.59;100.00;100526.88;4993439;28;20030;-76
2022/04/27 07:10:14;;;;;;;29.48;7.70;;;;;;;16.94;97.85;100552.53;4993566;28;20113;-76
2022/04/27 07:12:40;;;;;;;34.13;7.90;;;;;;;16.98;96.64;100547.38;4993713;28;20049;-75
2022/04/27 07:15:06;;;;;;;42.40;7.43;;;;;;;17.20;95.48;100562.41;4992987;28;20444;-76
2022/04/27 07:17:32;;;;;;;53.00;9.40;;;;;;;17.38;93.94;100566.94;4993007;28;20485;-73
2022/04/27 07:19:58;;;;;;;42.72;7.60;;;;;;;17.55;95.47;100567.13;4993274;28;20109;-77
2022/04/27 07:22:23;;;;;;;26.40;5.68;;;;;;;17.61;95.07;100568.03;4993507;28;20492;-76
2022/04/27 07:24:51;;;;;;;20.73;5.07;;;;;;;17.46;94.23;100529.63;4993178;28;20037;-77
2022/04/27 07:27:17;;;;;;;16.88;4.43;;;;;;;17.80;91.88;100573.44;4993591;28;20049;-74
2022/04/27 07:29:43;;;;;;;15.88;4.90;;;;;;;17.90;91.39;100575.25;4993097;28;20781;-76
2022/04/27 07:32:08;;;;;;;19.17;5.13;;;;;;;17.98;91.75;100577.09;4992769;28;20064;-74
2022/04/27 07:34:34;;;;;;;17.83;5.07;;;;;;;18.14;90.04;100570.25;4993029;28;20022;-77
2022/04/27 07:37:01;;;;;;;14.05;5.10;;;;;;;18.01;86.71;100571.91;4993365;28;20113;-77
2022/04/27 07:39:27;;;;;;;16.08;4.90;;;;;;;17.90;92.76;100562.19;4993315;28;20101;-74
2022/04/27 07:41:52;;;;;;;16.23;4.47;;;;;;;17.86;87.62;100549.97;4993105;28;20118;-76
2022/04/27 07:44:18;;;;;;;17.50;5.95;;;;;;;18.08;89.86;100568.47;4993115;28;20391;-75
2022/04/27 07:46:47;;;;;;;20.73;5.57;;;;;;;18.07;89.52;100562.38;4992103;28;20026;-77
2022/04/27 07:49:13;;;;;;;19.88;5.20;;;;;;;17.93;89.62;100575.28;4992872;28;20061;-75
2022/04/27 07:51:39;;;;;;;13.73;4.55;;;;;;;17.96;90.42;100574.47;4991743;28;20045;-76
2022/04/27 07:54:04;;;;;;;10.95;4.45;;;;;;;18.03;88.85;100573.66;4993101;28;20677;-75
2022/04/27 07:56:30;;;;;;;11.60;3.85;;;;;;;17.76;86.15;100548.16;4994674;28;20033;-75
2022/04/27 07:58:55;;;;;;;15.40;4.55;;;;;;;18.16;84.96;100573.78;4992201;28;20022;-73
2022/04/27 08:01:21;;;;;;;10.90;3.97;;;;;;;18.37;85.49;100566.06;4992440;28;20171;-73
2022/04/27 08:03:46;;;;;;;10.05;4.32;;;;;;;18.67;89.23;100554.03;4992555;28;20537;-74
2022/04/27 08:06:12;;;;;;;13.50;4.60;;;;;;;18.78;86.44;100567.16;4992320;28;20018;-73
2022/04/27 08:08:38;;;;;;;11.15;3.67;;;;;;;18.91;89.53;100562.88;4992369;28;20482;-76
2022/04/27 08:11:04;;;;;;;6.95;3.03;;;;;;;19.14;84.71;100568.22;4992267;28;20027;-76
2022/04/27 08:13:29;;;;;;;6.53;2.90;;;;;;;19.29;81.78;100564.78;4991706;28;20029;-76
2022/04/27 08:15:55;;;;;;;8.13;2.90;;;;;;;19.41;80.56;100563.91;4990920;28;20018;-76
2022/04/27 08:18:20;;;;;;;10.02;3.92;;;;;;;19.44;82.65;100566.53;4992037;28;20030;-77
2022/04/27 08:23:32;;;;;;;13.25;3.60;;;;;;;19.85;82.20;100557.88;4992470;28;20494;-73
2022/04/27 08:26:04;;;;;;;17.20;3.83;;;;;;;20.02;78.36;100551.75;4991681;28;20018;-75
2022/04/27 08:28:30;;;;;;;12.05;3.67;;;;;;;20.14;77.38;100550.91;4992186;28;20089;-75
2022/04/27 08:30:56;;;;;;;11.98;3.22;;;;;;;20.15;77.45;100548.25;4991603;28;20129;-75
2022/04/27 08:33:24;;;;;;;7.53;2.90;;;;;;;20.20;81.04;100546.50;4991726;28;20117;-75
2022/04/27 08:35:50;;;;;;;10.05;3.60;;;;;;;20.16;78.94;100552.63;4991813;28;20054;-73
2022/04/27 08:38:16;;;;;;;11.00;2.60;;;;;;;20.18;74.34;100531.66;4991646;28;20058;-73
2022/04/27 08:40:44;;;;;;;6.68;2.90;;;;;;;20.38;72.61;100541.25;4991598;28;20052;-73
2022/04/27 08:43:10;;;;;;;8.43;2.70;;;;;;;20.41;74.65;100533.34;4989640;28;20038;-75
2022/04/27 08:45:37;;;;;;;9.70;3.17;;;;;;;20.49;77.42;100535.06;4991551;28;20538;-75
2022/04/27 08:48:04;;;;;;;8.45;2.97;;;;;;;20.66;74.34;100534.13;4991669;28;20129;-76
2022/04/27 08:50:30;;;;;;;7.95;3.05;;;;;;;20.89;72.55;100527.97;4992575;28;20034;-74
2022/04/27 08:52:55;;;;;;;8.60;3.10;;;;;;;20.96;75.80;100527.03;4992340;28;20026;-74
2022/04/27 08:55:22;;;;;;;6.78;2.53;;;;;;;20.92;74.28;100514.81;4991651;28;20092;-74
2022/04/27 08:57:50;;;;;;;11.70;3.00;;;;;;;20.80;73.97;100497.41;4991296;28;20658;-74
2022/04/27 09:00:18;;;;;;;12.52;3.00;;;;;;;20.90;74.17;100511.31;4991778;28;20026;-75
2022/04/27 09:02:45;;;;;;;7.85;2.67;;;;;;;21.09;71.26;100518.22;4991639;28;20049;-73
2022/04/27 09:05:11;;;;;;;12.60;2.92;;;;;;;21.22;73.01;100521.69;4990116;28;20498;-74
2022/04/27 09:07:40;;;;;;;11.27;3.08;;;;;;;21.08;69.66;100490.22;4992269;28;20029;-74
2022/04/27 09:10:13;;;;;;;5.78;2.50;;;;;;;21.34;67.68;100518.09;4992282;28;20034;-77
2022/04/27 09:12:47;;;;;;;12.20;3.05;;;;;;;21.30;70.19;100513.75;4992503;28;20484;-73
2022/04/27 09:15:14;;;;;;;10.55;3.08;;;;;;;21.37;71.18;100512.81;4992154;28;20470;-73
2022/04/27 09:23:40;;;;;;;12.50;2.65;;;;;;;21.81;70.28;100511.63;4991607;28;20037;-74
2022/04/27 09:26:19;;;;;;;15.07;2.70;;;;;;;22.02;60.90;100491.28;4991462;28;20477;-74
2022/04/27 09:28:53;;;;;;;;;;;;;;;22.12;63.23;100482.41;4991927;28;20113;-74
2022/04/27 09:31:29;;;;;;;17.98;3.40;;;;;;;22.19;64.82;100483.19;4991214;28;20000;-73
2022/04/27 09:34:03;;;;;;;18.23;3.90;;;;;;;22.40;65.65;100492.63;4990401;28;20034;-73
2022/04/27 09:36:29;;;;;;;6.18;2.30;;;;;;;22.54;62.70;100487.25;4991420;28;20026;-74
2022/04/27 09:38:57;;;;;;;10.38;2.38;;;;;;;22.56;59.57;100482.81;4989880;28;20038;-73
2022/04/27 09:41:40;;;;;;;10.02;2.53;;;;;;;22.61;60.29;100472.22;4989717;28;20171;-74
2022/04/27 09:44:06;;;;;;;26.75;3.95;;;;;;;22.82;62.36;100480.72;4990230;28;20030;-74
2022/04/27 09:46:31;;;;;;;15.23;3.33;;;;;;;22.85;57.77;100454.38;4990121;28;20125;-73
2022/04/27 09:49:09;;;;;;;11.38;3.30;;;;;;;23.13;58.33;100469.75;4990223;28;20034;-75
2022/04/27 09:51:55;;;;;;;6.50;2.38;;;;;;;23.19;56.92;100461.78;4989963;28;20034;-74
2022/04/27 09:54:25;;;;;;;9.10;2.10;;;;;;;23.37;52.47;100468.56;4989862;28;20023;-74
2022/04/27 09:56:55;;;;;;;5.82;1.98;;;;;;;23.32;51.75;100467.75;4990547;28;20030;-74
2022/04/27 09:59:26;;;;;;;;;;;;;;;23.43;48.68;100468.47;4990628;28;20057;-72
2022/04/27 10:01:57;;;;;;;15.80;3.50;;;;;;;23.45;50.18;100469.28;4989978;28;19925;-74
2022/04/27 10:04:28;;;;;;;15.50;2.80;;;;;;;23.69;51.57;100473.28;4989833;28;20030;-73
2022/04/27 10:06:58;;;;;;;8.98;1.98;;;;;;;23.87;49.08;100466.81;4990053;28;20026;-74
2022/04/27 10:09:25;;;;;;;11.63;2.22;;;;;;;23.85;49.95;100462.44;4989518;28;20038;-74
2022/04/27 10:11:51;;;;;;;6.10;1.70;;;;;;;24.14;48.12;100471.63;4989906;28;20041;-73
2022/04/27 10:14:17;;;;;;;7.88;2.17;;;;;;;24.35;48.54;100471.22;4989427;28;20022;-74
2022/04/27 10:16:44;;;;;;;15.93;3.35;;;;;;;24.46;47.65;100462.19;4990157;28;20508;-73
2022/04/27 10:19:10;;;;;;;6.00;1.83;;;;;;;24.19;52.71;100459.22;4991013;28;20026;-73
2022/04/27 10:21:43;;;;;;;8.45;2.28;;;;;;;23.80;55.66;100461.66;4990544;28;20031;-69
2022/04/27 10:24:12;;;;;;;5.05;1.90;;;;;;;23.33;54.25;100454.56;4990900;28;20109;-73
2022/04/27 10:26:38;;;;;;;4.57;1.88;;;;;;;23.39;52.63;100450.94;4990750;28;20030;-74
2022/04/27 10:29:09;;;;;;;5.70;2.33;;;;;;;23.50;53.62;100451.66;4990384;28;20401;-71
2022/04/27 10:31:42;;;;;;;5.78;1.92;;;;;;;23.10;53.11;100403.09;4990783;28;20027;-72
2022/04/27 10:34:18;;;;;;;7.05;2.15;;;;;;;23.16;53.44;100406.56;4990918;28;20027;-72
2022/04/27 10:37:05;;;;;;;26.20;5.50;;;;;;;23.55;53.55;100446.28;4990872;28;20058;-72
2022/04/27 10:39:31;;;;;;;13.60;3.88;;;;;;;23.83;52.74;100440.53;4990495;28;20041;-72
2022/04/27 10:42:02;;;;;;;18.77;3.40;;;;;;;24.10;55.35;100440.94;4990917;28;20077;-73
2022/04/27 10:44:59;;;;;;;13.38;3.13;;;;;;;24.14;52.85;100445.22;4990639;28;20030;-74
2022/04/27 10:47:33;;;;;;;6.45;2.05;;;;;;;24.01;51.00;100436.72;4990562;28;20066;-74
2022/04/27 10:50:13;;;;;;;5.60;2.20;;;;;;;24.26;52.57;100441.50;4990654;28;20414;-72
2022/04/27 10:52:55;;;;;;;11.15;2.88;;;;;;;24.42;50.68;100431.50;4990709;28;20105;-73
2022/04/27 10:55:38;;;;;;;7.38;2.10;;;;;;;24.48;51.31;100428.75;4990521;28;20667;-73
2022/04/27 10:58:18;;;;;;;6.63;2.10;;;;;;;24.21;50.93;100405.53;4990620;28;20405;-72
2022/04/27 11:01:01;;;;;;;7.55;2.47;;;;;;;24.57;49.53;100430.31;4990508;28;20022;-72
2022/04/27 11:03:31;;;;;;;6.60;1.90;;;;;;;24.92;50.96;100426.88;4990768;28;20555;-73
2022/04/27 11:06:04;;;;;;;5.25;2.08;;;;;;;25.22;50.20;100416.50;4990284;28;20485;-76
2022/04/27 11:08:32;;;;;;;9.55;2.35;;;;;;;25.29;47.52;100423.38;4989971;28;20449;-73
2022/04/27 11:11:06;;;;;;;7.53;2.05;;;;;;;25.15;48.83;100422.84;4989685;28;20421;-75
2022/04/27 11:13:36;;;;;;;7.68;2.30;;;;;;;25.21;48.98;100422.72;4989358;28;20038;-73
2022/04/27 11:16:12;;;;;;;12.52;2.58;;;;;;;25.40;49.97;100422.28;4989537;28;20034;-74
2022/04/27 11:18:50;;;;;;;20.67;4.00;;;;;;;25.60;45.59;100392.69;4990038;28;20026;-73
2022/04/27 11:21:20;;;;;;;30.27;5.78;;;;;;;25.75;47.15;100372.88;4992338;28;20061;-73
2022/04/27 11:23:46;;;;;;;8.65;2.70;;;;;;;25.97;48.74;100403.09;4992682;28;20033;-73
2022/04/27 11:26:13;;;;;;;13.98;2.63;;;;;;;25.84;49.23;100414.94;4993966;28;20030;-74
2022/04/27 11:28:41;;;;;;;5.32;2.50;;;;;;;25.68;48.25;100417.13;4958573;28;20040;-72
2022/04/27 11:31:07;;;;;;;14.25;2.67;;;;;;;25.52;46.92;100401.69;4993070;28;20046;-73
2022/04/27 11:33:38;;;;;;;8.73;2.15;;;;;;;25.71;49.45;100403.84;4991851;28;20026;-73
2022/04/27 11:36:04;;;;;;;8.73;2.45;;;;;;;25.63;50.09;100396.13;4991870;28;20029;-75
2022/04/27 11:38:35;;;;;;;7.80;2.25;;;;;;;25.99;46.62;100405.72;4992895;28;20034;-72